Time;durP1;ratioP1;P1;durP2;ratioP2;P2;SDS_P1;SDS_P2;PMS_P1;PMS_P2;Temp;Humidity;BMP_temperature;BMP_pressure;BME280_temperature;BME280_humidity;BME280_pressure;Samples;Min_cycle;Max_cycle;Signal;HPM_P1;HPM_P2
2021/06/21 00:01:55;;;;;;;6.90;6.22;;;;;;;23.11;64.29;100757.09;6312202;28;20247;-75
2021/06/21 00:05:01;;;;;;;7.05;6.38;;;;;;;23.14;64.09;100765.66;6312899;28;20192;-76
2021/06/21 00:08:07;;;;;;;6.93;6.50;;;;;;;23.10;64.08;100761.84;6312818;28;20228;-76
2021/06/21 00:11:12;;;;;;;6.72;6.03;;;;;;;23.15;64.12;100753.41;6312114;28;20183;-75
2021/06/21 00:14:17;;;;;;;7.00;6.40;;;;;;;23.14;64.28;100739.81;6311441;28;20276;-75
2021/06/21 00:17:21;;;;;;;9.73;6.40;;;;;;;23.13;63.90;100729.78;6313277;28;20239;-76
2021/06/21 00:20:28;;;;;;;6.63;5.65;;;;;;;23.13;64.25;100727.84;6312482;28;20207;-75
2021/06/21 00:23:32;;;;;;;6.95;6.32;;;;;;;23.11;63.65;100735.69;6312661;28;20187;-75
2021/06/21 00:26:36;;;;;;;6.60;6.15;;;;;;;23.09;63.65;100721.22;6312811;28;20187;-76
2021/06/21 00:29:41;;;;;;;6.82;6.30;;;;;;;23.18;63.33;100702.72;6312415;28;20194;-75
2021/06/21 00:32:48;;;;;;;6.93;6.30;;;;;;;23.07;63.86;100704.00;6294036;28;20230;-75
2021/06/21 00:35:53;;;;;;;6.57;6.03;;;;;;;23.09;63.85;100726.78;6312615;28;20191;-76
2021/06/21 00:38:57;;;;;;;6.28;5.97;;;;;;;23.03;64.23;100719.66;6312291;28;20286;-75
2021/06/21 00:42:01;;;;;;;7.07;6.38;;;;;;;23.00;64.09;100726.66;6311534;28;20191;-76
2021/06/21 00:45:07;;;;;;;8.48;6.50;;;;;;;22.97;64.45;100729.19;6311196;28;20406;-76
2021/06/21 00:48:13;;;;;;;7.15;5.85;;;;;;;23.05;63.62;100725.75;6311167;28;20241;-75
2021/06/21 00:51:19;;;;;;;6.68;6.28;;;;;;;23.04;64.14;100718.50;6312115;28;20183;-75
2021/06/21 00:54:23;;;;;;;6.75;6.20;;;;;;;23.03;64.00;100716.88;6312147;28;20202;-76
2021/06/21 00:57:29;;;;;;;7.95;6.28;;;;;;;22.96;64.53;100705.28;6312060;28;20215;-75
2021/06/21 01:00:33;;;;;;;12.05;6.20;;;;;;;23.00;64.35;100706.34;6310988;28;20439;-75
2021/06/21 01:03:38;;;;;;;7.38;5.93;;;;;;;22.97;64.42;100716.13;6314609;28;20219;-75
2021/06/21 01:06:43;;;;;;;7.30;6.53;;;;;;;22.88;64.99;100714.34;6315982;28;20546;-76
2021/06/21 01:09:49;;;;;;;9.18;6.22;;;;;;;22.96;64.74;100710.84;6316898;28;20188;-75
2021/06/21 01:13:17;;;;;;;6.63;5.93;;;;;;;22.90;64.95;100700.94;6315926;28;20271;-75
2021/06/21 01:16:27;;;;;;;6.18;5.78;;;;;;;22.89;65.24;100699.28;6315857;28;20266;-76
2021/06/21 01:20:07;;;;;;;6.72;6.10;;;;;;;22.87;65.41;100701.53;6315598;28;20403;-75
2021/06/21 01:23:50;;;;;;;7.03;6.53;;;;;;;22.87;65.39;100707.09;6316973;28;20270;-75
2021/06/21 01:27:08;;;;;;;6.78;6.13;;;;;;;22.96;64.97;100733.09;6316893;28;20184;-76
2021/06/21 01:30:19;;;;;;;7.07;6.47;;;;;;;22.74;66.05;100746.78;6315511;28;20483;-75
2021/06/21 01:33:26;;;;;;;7.55;5.97;;;;;;;22.74;65.87;100744.00;6316741;28;20184;-76
2021/06/21 01:36:31;;;;;;;6.65;6.15;;;;;;;22.77;66.19;100757.31;6316252;28;20183;-74
2021/06/21 01:39:36;;;;;;;7.22;6.60;;;;;;;22.71;66.33;100762.13;6315151;28;20208;-75
2021/06/21 01:42:41;;;;;;;6.55;6.00;;;;;;;22.79;66.08;100757.84;6315118;28;20390;-75
2021/06/21 01:45:46;;;;;;;7.10;6.25;;;;;;;22.67;66.42;100763.88;6316066;28;20184;-75
2021/06/21 01:48:56;;;;;;;7.30;6.65;;;;;;;22.81;65.99;100763.94;6315045;28;20478;-76
2021/06/21 01:52:04;;;;;;;9.18;6.70;;;;;;;22.62;66.72;100750.03;6316348;28;20255;-76
2021/06/21 01:55:12;;;;;;;7.82;6.65;;;;;;;22.68;66.38;100736.84;6314979;28;20184;-75
2021/06/21 01:58:18;;;;;;;8.13;7.40;;;;;;;22.63;67.12;100756.38;6316138;28;20184;-75
2021/06/21 02:01:23;;;;;;;8.77;6.43;;;;;;;22.68;66.97;100748.81;6315123;28;20510;-75
2021/06/21 02:04:33;;;;;;;7.32;6.82;;;;;;;22.78;66.92;100742.28;6315544;28;20183;-76
2021/06/21 02:07:38;;;;;;;7.47;6.97;;;;;;;22.82;67.73;100740.56;6315881;28;20269;-75
2021/06/21 02:10:42;;;;;;;8.55;6.68;;;;;;;22.84;67.19;100749.44;6315473;28;20188;-75
2021/06/21 02:13:49;;;;;;;7.13;6.45;;;;;;;22.82;67.27;100748.91;6313265;28;20460;-75
2021/06/21 02:16:54;;;;;;;7.93;6.93;;;;;;;22.87;67.08;100746.03;6314448;28;20258;-76
2021/06/21 02:20:00;;;;;;;10.82;6.72;;;;;;;22.75;68.85;100737.34;6315216;28;20270;-76
2021/06/21 02:23:05;;;;;;;7.78;7.10;;;;;;;22.66;69.68;100745.50;6315501;28;20184;-75
2021/06/21 02:26:09;;;;;;;7.18;6.68;;;;;;;22.67;69.26;100726.88;6314495;28;20192;-75
2021/06/21 02:29:18;;;;;;;9.85;7.25;;;;;;;22.63;70.13;100723.84;6315195;28;20219;-76
2021/06/21 02:32:23;;;;;;;9.90;7.53;;;;;;;22.64;70.48;100719.13;6315364;28;20230;-75
2021/06/21 02:35:29;;;;;;;7.93;7.20;;;;;;;22.65;69.44;100723.56;6315070;28;20187;-76
2021/06/21 02:38:33;;;;;;;7.75;7.15;;;;;;;22.61;70.04;100731.66;6315047;28;20215;-75
2021/06/21 02:41:37;;;;;;;8.25;7.47;;;;;;;22.54;70.26;100731.19;6313920;28;20211;-77
2021/06/21 02:44:42;;;;;;;7.60;6.97;;;;;;;22.50;71.10;100734.84;6315017;28;20184;-75
2021/06/21 02:47:46;;;;;;;8.40;7.18;;;;;;;22.51;70.55;100736.50;6314601;28;20191;-76
2021/06/21 02:50:53;;;;;;;7.78;7.07;;;;;;;22.38;71.14;100733.34;6314652;28;20254;-76
2021/06/21 02:54:02;;;;;;;7.65;7.15;;;;;;;22.39;71.09;100737.75;6314527;28;20252;-76
2021/06/21 02:57:17;;;;;;;10.00;7.88;;;;;;;22.41;70.72;100732.75;6313493;28;20289;-75
2021/06/21 03:00:22;;;;;;;10.27;7.28;;;;;;;22.38;70.86;100744.47;6314214;28;20239;-76
2021/06/21 03:03:32;;;;;;;10.88;7.40;;;;;;;22.33;71.53;100729.81;6314394;28;20183;-76
2021/06/21 03:06:37;;;;;;;8.98;7.82;;;;;;;22.28;71.83;100741.81;6314516;28;20219;-75
2021/06/21 03:09:44;;;;;;;13.10;8.02;;;;;;;22.27;71.89;100739.31;6313011;28;20483;-75
2021/06/21 03:12:51;;;;;;;8.27;7.63;;;;;;;22.25;71.84;100739.63;6313132;28;20475;-76
2021/06/21 03:15:59;;;;;;;8.43;7.78;;;;;;;22.09;73.07;100740.91;6313656;28;20235;-74
2021/06/21 03:19:04;;;;;;;8.93;7.88;;;;;;;22.02;74.01;100750.72;6314254;28;20187;-76
2021/06/21 03:22:09;;;;;;;8.63;7.88;;;;;;;22.01;74.09;100755.44;6313699;28;20206;-75
2021/06/21 03:25:14;;;;;;;9.27;8.25;;;;;;;21.98;74.25;100750.47;6313811;28;20187;-76
2021/06/21 03:28:19;;;;;;;8.13;7.32;;;;;;;21.86;74.90;100752.84;6312612;28;20230;-76
2021/06/21 03:31:24;;;;;;;11.65;7.95;;;;;;;21.71;75.88;100756.56;6314003;28;20254;-76
2021/06/21 03:34:28;;;;;;;10.85;7.88;;;;;;;21.66;76.00;100758.56;6313535;28;20187;-75
2021/06/21 03:37:33;;;;;;;11.20;8.27;;;;;;;21.56;76.73;100764.22;6312380;28;20494;-76
2021/06/21 03:40:38;;;;;;;9.65;8.65;;;;;;;21.38;77.84;100762.16;6312423;28;20580;-76
2021/06/21 03:43:42;;;;;;;11.30;8.95;;;;;;;21.40;77.86;100771.00;6313252;28;20183;-76
2021/06/21 03:46:46;;;;;;;11.15;8.57;;;;;;;21.38;77.76;100770.47;6313280;28;20206;-76
2021/06/21 03:49:50;;;;;;;15.70;9.50;;;;;;;21.55;77.27;100770.88;6313458;28;20251;-75
2021/06/21 03:52:56;;;;;;;11.48;9.05;;;;;;;21.33;78.76;100764.97;6311992;28;20432;-76
2021/06/21 03:56:00;;;;;;;10.30;9.38;;;;;;;21.31;78.99;100761.66;6311957;28;20550;-75
2021/06/21 03:59:04;;;;;;;10.13;9.10;;;;;;;21.31;79.00;100773.59;6311850;28;20413;-76
2021/06/21 04:02:10;;;;;;;11.10;9.18;;;;;;;21.49;78.23;100783.16;6312828;28;20219;-76
2021/06/21 04:05:14;;;;;;;13.32;9.30;;;;;;;21.55;77.88;100780.03;6294559;28;20231;-76
2021/06/21 04:08:20;;;;;;;9.82;9.02;;;;;;;21.67;77.86;100774.94;6313180;28;20191;-76
2021/06/21 04:11:26;;;;;;;10.38;9.50;;;;;;;21.74;77.46;100777.38;6311707;28;20496;-75
2021/06/21 04:14:30;;;;;;;11.75;9.80;;;;;;;21.65;78.55;100779.13;6313068;28;20184;-76
2021/06/21 04:17:34;;;;;;;11.10;9.88;;;;;;;21.61;79.01;100784.44;6311897;28;20288;-75
2021/06/21 04:20:40;;;;;;;12.20;10.05;;;;;;;21.67;79.21;100788.00;6312500;28;20219;-76
2021/06/21 04:23:45;;;;;;;10.63;9.65;;;;;;;21.65;79.93;100784.66;6311515;28;20455;-75
2021/06/21 04:26:49;;;;;;;12.98;9.68;;;;;;;21.80;78.48;100784.56;6294323;28;20541;-76
2021/06/21 04:29:53;;;;;;;14.60;10.02;;;;;;;21.89;78.33;100790.31;6311334;28;20521;-76
2021/06/21 04:32:58;;;;;;;11.43;10.43;;;;;;;22.01;77.55;100788.78;6312546;28;20187;-75
2021/06/21 04:36:02;;;;;;;11.45;10.25;;;;;;;21.89;78.28;100795.88;6312907;28;20190;-76
2021/06/21 04:39:08;;;;;;;11.70;10.27;;;;;;;21.99;78.39;100792.97;6310843;28;20475;-76
2021/06/21 04:42:12;;;;;;;13.40;10.20;;;;;;;22.01;78.29;100799.91;6312537;28;20215;-76
2021/06/21 04:45:18;;;;;;;10.98;10.07;;;;;;;22.03;78.41;100796.84;6311888;28;20183;-76
2021/06/21 04:48:23;;;;;;;14.48;10.50;;;;;;;22.24;77.12;100799.09;6312191;28;20183;-75
2021/06/21 04:51:31;;;;;;;12.93;10.95;;;;;;;22.30;76.97;100797.94;6312333;28;20210;-76
2021/06/21 04:54:36;;;;;;;16.75;10.63;;;;;;;22.38;76.51;100804.78;6311339;28;20184;-76
2021/06/21 04:57:41;;;;;;;12.48;10.20;;;;;;;22.43;77.05;100801.94;6312334;28;20251;-76
2021/06/21 05:00:45;;;;;;;18.13;10.68;;;;;;;22.53;76.48;100801.81;6312244;28;20222;-77
2021/06/21 05:03:49;;;;;;;16.55;11.15;;;;;;;22.53;76.73;100812.09;6311155;28;20472;-76
2021/06/21 05:06:53;;;;;;;12.73;10.68;;;;;;;22.58;75.99;100812.03;6311310;28;20236;-78
2021/06/21 05:09:59;;;;;;;13.18;10.57;;;;;;;22.63;76.15;100812.00;6312187;28;20183;-75
2021/06/21 05:13:03;;;;;;;13.60;10.18;;;;;;;22.68;76.16;100820.28;6311788;28;20195;-76
2021/06/21 05:16:08;;;;;;;14.27;11.43;;;;;;;22.81;75.58;100819.56;6310850;28;20511;-75
2021/06/21 05:19:13;;;;;;;13.13;9.80;;;;;;;23.76;72.30;100824.81;6311669;28;20183;-76
2021/06/21 05:22:17;;;;;;;16.77;9.63;;;;;;;24.10;72.04;100814.22;6311116;28;20211;-76
2021/06/21 05:25:23;;;;;;;10.57;9.60;;;;;;;24.74;70.54;100819.59;6311658;28;20190;-76
2021/06/21 05:28:28;;;;;;;11.38;9.95;;;;;;;25.04;68.56;100828.47;6311337;28;20184;-76
2021/06/21 05:31:32;;;;;;;20.02;9.75;;;;;;;25.19;67.76;100822.56;6310573;28;20517;-76
2021/06/21 05:34:36;;;;;;;11.77;9.43;;;;;;;25.33;66.90;100818.56;6310613;28;20215;-76
2021/06/21 05:37:40;;;;;;;11.32;9.65;;;;;;;25.24;66.11;100817.66;6311097;28;20436;-76
2021/06/21 05:40:46;;;;;;;12.65;9.10;;;;;;;25.34;66.28;100811.03;6311504;28;20190;-76
2021/06/21 05:43:50;;;;;;;21.50;9.70;;;;;;;25.17;66.46;100813.63;6310540;28;20230;-75
2021/06/21 05:46:54;;;;;;;10.68;9.57;;;;;;;25.21;67.37;100814.69;6311465;28;20184;-76
2021/06/21 05:49:58;;;;;;;10.05;9.15;;;;;;;25.25;66.49;100812.91;6314957;28;20246;-75
2021/06/21 05:53:02;;;;;;;12.68;9.68;;;;;;;25.24;66.67;100822.44;6315640;28;20234;-75
2021/06/21 05:56:08;;;;;;;10.05;9.20;;;;;;;25.32;67.01;100824.47;6316027;28;20184;-75
2021/06/21 05:59:12;;;;;;;10.13;9.18;;;;;;;25.24;67.69;100830.81;6315324;28;20251;-76
2021/06/21 06:02:16;;;;;;;13.27;9.95;;;;;;;25.20;66.36;100815.81;6315664;28;20211;-75
2021/06/21 06:05:20;;;;;;;10.35;9.10;;;;;;;25.20;66.88;100813.03;6314459;28;20445;-76
2021/06/21 06:08:25;;;;;;;12.93;9.70;;;;;;;25.33;67.41;100823.31;6315886;28;20184;-75
2021/06/21 06:11:31;;;;;;;10.48;9.38;;;;;;;25.40;66.28;100809.72;6314856;28;20188;-76
2021/06/21 06:14:35;;;;;;;17.80;9.60;;;;;;;25.34;66.71;100816.59;6315075;28;20184;-75
2021/06/21 06:17:39;;;;;;;14.00;9.30;;;;;;;25.43;66.83;100820.28;6314434;28;20234;-75
2021/06/21 06:20:44;;;;;;;11.07;9.82;;;;;;;25.49;66.17;100819.06;6314469;28;20187;-75
2021/06/21 06:24:09;;;;;;;10.73;9.15;;;;;;;25.62;66.61;100818.19;6315118;28;20222;-75
2021/06/21 06:27:14;;;;;;;18.02;9.27;;;;;;;25.59;65.74;100815.19;6314836;28;20190;-75
2021/06/21 06:30:20;;;;;;;19.58;9.85;;;;;;;25.53;65.49;100811.69;6314532;28;20184;-75
2021/06/21 06:33:24;;;;;;;11.45;8.90;;;;;;;25.51;65.27;100819.56;6314363;28;20251;-76
2021/06/21 06:36:28;;;;;;;12.82;9.00;;;;;;;25.45;65.08;100806.81;6314949;28;20183;-76
2021/06/21 06:39:33;;;;;;;9.60;8.65;;;;;;;25.51;65.26;100816.78;6313435;28;20184;-76
2021/06/21 06:42:38;;;;;;;11.85;9.07;;;;;;;25.53;64.38;100825.66;6313338;28;20270;-75
2021/06/21 06:45:42;;;;;;;9.88;8.68;;;;;;;25.67;64.73;100825.59;6313169;28;20355;-75
2021/06/21 06:48:46;;;;;;;12.05;8.50;;;;;;;25.73;63.87;100825.13;6313009;28;20474;-75
2021/06/21 06:51:53;;;;;;;11.70;8.25;;;;;;;25.85;63.63;100819.81;6314612;28;20183;-75
2021/06/21 06:58:20;;;;;;;13.05;8.18;;;;;;;25.71;62.48;100821.84;6313571;28;20191;-75
2021/06/21 07:01:25;;;;;;;12.52;7.82;;;;;;;25.91;61.63;100821.31;6313049;28;20431;-76
2021/06/21 07:04:31;;;;;;;8.82;7.63;;;;;;;26.07;60.59;100819.78;6312659;28;20577;-76
2021/06/21 07:07:35;;;;;;;9.05;7.53;;;;;;;26.15;60.72;100825.75;6312571;28;20214;-76
2021/06/21 07:10:40;;;;;;;8.63;7.45;;;;;;;26.16;59.25;100821.84;6312403;28;20420;-76
2021/06/21 07:13:45;;;;;;;8.57;6.75;;;;;;;26.19;58.93;100822.03;6313621;28;20194;-75
2021/06/21 07:16:50;;;;;;;9.00;6.88;;;;;;;26.32;60.02;100821.06;6312901;28;20259;-75
2021/06/21 07:19:54;;;;;;;8.45;6.68;;;;;;;26.29;59.54;100826.50;6313273;28;20191;-76
2021/06/21 07:22:58;;;;;;;8.13;6.72;;;;;;;26.36;58.14;100832.44;6313167;28;20207;-75
2021/06/21 07:26:05;;;;;;;6.70;5.55;;;;;;;26.31;56.26;100835.38;6312478;28;20267;-75
2021/06/21 07:29:14;;;;;;;5.68;5.15;;;;;;;26.34;55.51;100845.94;6312146;28;20210;-75
2021/06/21 07:32:18;;;;;;;5.82;4.90;;;;;;;26.38;54.81;100850.56;6312847;28;20194;-75
2021/06/21 07:35:23;;;;;;;9.55;5.38;;;;;;;26.53;55.62;100843.69;6313016;28;20218;-76
2021/06/21 07:38:28;;;;;;;8.35;5.07;;;;;;;26.44;53.67;100851.25;6313211;28;20184;-75
2021/06/21 07:41:32;;;;;;;5.00;4.45;;;;;;;26.54;51.05;100856.56;6294509;28;20246;-75
2021/06/21 07:44:38;;;;;;;5.82;3.80;;;;;;;26.69;50.82;100858.91;6312726;28;20245;-75
2021/06/21 07:47:43;;;;;;;5.80;3.45;;;;;;;26.73;49.25;100860.75;6312923;28;20190;-75
2021/06/21 07:50:47;;;;;;;7.30;3.85;;;;;;;26.78;50.04;100862.63;6311497;28;20370;-75
2021/06/21 07:53:53;;;;;;;4.97;3.55;;;;;;;26.75;48.26;100863.22;6312776;28;20278;-76
2021/06/21 07:56:57;;;;;;;4.30;3.95;;;;;;;26.82;50.02;100863.59;6311273;28;20223;-76
2021/06/21 08:00:03;;;;;;;3.60;3.38;;;;;;;26.85;48.87;100856.53;6312745;28;20223;-76
2021/06/21 08:03:17;;;;;;;3.95;3.72;;;;;;;26.98;48.59;100867.59;6311872;28;20272;-76
2021/06/21 08:06:21;;;;;;;4.47;3.70;;;;;;;26.89;49.37;100869.53;6312786;28;20190;-76
2021/06/21 08:09:25;;;;;;;7.88;4.00;;;;;;;26.89;49.67;100865.91;6312501;28;20230;-76
2021/06/21 08:12:31;;;;;;;6.82;3.90;;;;;;;27.00;48.66;100865.31;6310169;28;20215;-76
2021/06/21 08:15:38;;;;;;;11.00;3.88;;;;;;;27.11;49.45;100877.03;6311197;28;20502;-76
2021/06/21 08:18:42;;;;;;;5.70;4.00;;;;;;;27.09;48.83;100868.94;6312158;28;20222;-76
2021/06/21 08:21:46;;;;;;;4.65;4.15;;;;;;;27.07;47.96;100876.84;6310725;28;20231;-76
2021/06/21 08:24:51;;;;;;;6.05;4.10;;;;;;;27.10;48.65;100881.78;6311716;28;20207;-76
2021/06/21 08:27:56;;;;;;;4.75;3.65;;;;;;;27.11;47.68;100879.81;6310750;28;20445;-77
2021/06/21 08:31:02;;;;;;;4.07;3.65;;;;;;;27.09;48.08;100880.13;6310972;28;20190;-76
2021/06/21 08:34:06;;;;;;;4.07;3.45;;;;;;;27.19;48.33;100885.47;6310519;28;20474;-76
2021/06/21 08:37:12;;;;;;;4.22;3.95;;;;;;;27.01;47.28;100883.75;6310541;28;20194;-76
2021/06/21 08:40:19;;;;;;;8.02;3.42;;;;;;;26.98;46.31;100889.19;6310245;28;20467;-76
2021/06/21 08:43:24;;;;;;;4.07;3.72;;;;;;;27.16;47.03;100890.88;6310659;28;20211;-75
2021/06/21 08:46:29;;;;;;;5.07;3.53;;;;;;;27.15;47.58;100895.66;6311984;28;20214;-76
2021/06/21 08:49:35;;;;;;;5.18;3.38;;;;;;;27.16;46.72;100891.72;6311664;28;20190;-75
2021/06/21 08:52:40;;;;;;;4.30;3.28;;;;;;;27.05;46.14;100900.72;6293029;28;20580;-75
2021/06/21 08:55:47;;;;;;;3.15;2.97;;;;;;;27.02;45.44;100912.56;6294138;28;20203;-76
2021/06/21 08:58:51;;;;;;;4.97;3.20;;;;;;;27.09;45.13;100902.53;6311555;28;20307;-75
2021/06/21 09:01:57;;;;;;;3.15;2.95;;;;;;;27.13;45.76;100914.75;6311872;28;20199;-76
2021/06/21 09:05:02;;;;;;;4.45;2.80;;;;;;;27.16;43.93;100913.28;6311350;28;20212;-76
2021/06/21 09:08:10;;;;;;;2.63;2.53;;;;;;;27.23;44.57;100908.00;6310683;28;20513;-77
2021/06/21 09:11:14;;;;;;;2.90;2.80;;;;;;;27.23;43.95;100925.66;6310371;28;20395;-75
2021/06/21 09:14:33;;;;;;;2.97;2.72;;;;;;;27.23;42.97;100931.25;6311250;28;20193;-75
2021/06/21 09:17:40;;;;;;;4.28;2.70;;;;;;;27.30;44.21;100925.16;6310472;28;20263;-75
2021/06/21 09:20:44;;;;;;;4.35;3.15;;;;;;;27.33;43.97;100936.53;6311418;28;20188;-75
2021/06/21 09:23:50;;;;;;;8.45;2.95;;;;;;;27.34;44.59;100926.16;6312220;28;20498;-75
2021/06/21 09:26:55;;;;;;;2.70;2.70;;;;;;;27.33;43.79;100930.94;6315071;28;20222;-77
2021/06/21 09:30:05;;;;;;;2.97;2.78;;;;;;;27.30;44.69;100931.59;6315540;28;20205;-75
2021/06/21 09:33:28;;;;;;;5.88;2.75;;;;;;;27.31;42.95;100916.44;6315986;28;20230;-76
2021/06/21 09:36:35;;;;;;;3.00;2.88;;;;;;;27.33;43.49;100919.75;6314524;28;20498;-76
2021/06/21 09:39:42;;;;;;;2.13;2.00;;;;;;;27.32;42.21;100923.69;6316304;28;20250;-75
2021/06/21 09:42:46;;;;;;;2.78;2.20;;;;;;;27.19;41.43;100921.88;6315053;28;20219;-75
2021/06/21 09:46:06;;;;;;;3.40;2.08;;;;;;;27.20;41.22;100914.25;6315602;28;20233;-75
2021/06/21 09:49:14;;;;;;;2.75;1.75;;;;;;;27.15;40.74;100915.25;6314064;28;20199;-75
2021/06/21 09:52:33;;;;;;;2.38;2.05;;;;;;;27.21;39.60;100913.97;6315954;28;20215;-76
2021/06/21 09:55:39;;;;;;;2.00;1.90;;;;;;;27.29;39.51;100915.97;6314741;28;20471;-76
2021/06/21 09:58:43;;;;;;;1.70;1.60;;;;;;;27.18;39.79;100923.00;6318338;28;20215;-75
2021/06/21 10:02:05;;;;;;;2.72;1.85;;;;;;;27.27;39.63;100926.63;6316797;28;20192;-75
2021/06/21 10:05:23;;;;;;;1.73;1.63;;;;;;;27.20;38.40;100926.28;6315629;28;20211;-76
2021/06/21 10:08:40;;;;;;;6.18;1.40;;;;;;;27.27;39.48;100915.44;6314341;28;20251;-76
2021/06/21 10:11:45;;;;;;;1.98;1.40;;;;;;;27.30;39.87;100920.38;6314801;28;20264;-76
2021/06/21 10:14:50;;;;;;;4.68;1.50;;;;;;;27.32;39.72;100934.09;6315020;28;20226;-76
2021/06/21 10:17:54;;;;;;;3.20;1.40;;;;;;;27.31;38.90;100927.66;6313767;28;20546;-76
2021/06/21 10:21:00;;;;;;;1.40;1.40;;;;;;;27.32;38.12;100934.09;6314816;28;20183;-75
2021/06/21 10:24:05;;;;;;;3.15;1.55;;;;;;;27.26;39.03;100930.59;6314881;28;20212;-76
2021/06/21 10:27:10;;;;;;;2.25;1.80;;;;;;;27.18;38.05;100933.38;6313905;28;20505;-76
2021/06/21 10:30:16;;;;;;;6.07;2.20;;;;;;;27.21;38.90;100941.97;6314541;28;20192;-76
2021/06/21 10:33:21;;;;;;;2.03;1.80;;;;;;;27.25;38.86;100933.72;6314437;28;20191;-76
2021/06/21 10:36:40;;;;;;;2.95;1.73;;;;;;;27.28;38.63;100933.91;6313580;28;20251;-75
2021/06/21 10:39:47;;;;;;;5.22;2.03;;;;;;;27.29;37.86;100935.56;6314172;28;20215;-75
2021/06/21 10:42:51;;;;;;;3.40;1.73;;;;;;;27.45;38.49;100935.13;6314493;28;20252;-76
2021/06/21 10:46:21;;;;;;;1.75;1.70;;;;;;;27.53;36.62;100928.72;6313368;28;20556;-76
2021/06/21 10:49:34;;;;;;;4.78;1.70;;;;;;;27.61;36.61;100930.69;6313942;28;20187;-75
2021/06/21 10:52:56;;;;;;;2.08;1.80;;;;;;;27.65;36.85;100937.28;6314216;28;20184;-76
2021/06/21 10:56:00;;;;;;;1.58;1.58;;;;;;;27.64;35.38;100921.63;6313825;28;20219;-76
2021/06/21 10:59:12;;;;;;;1.90;1.80;;;;;;;27.67;35.05;100921.78;6312911;28;20470;-76
2021/06/21 11:02:38;;;;;;;7.35;1.90;;;;;;;27.66;35.56;100911.72;6313917;28;20183;-76
2021/06/21 11:05:43;;;;;;;1.70;1.63;;;;;;;27.73;34.80;100916.84;6314023;28;20239;-76
2021/06/21 11:08:54;;;;;;;1.77;1.77;;;;;;;27.83;35.82;100927.72;6313444;28;20259;-77
2021/06/21 11:11:58;;;;;;;3.20;1.92;;;;;;;27.85;36.76;100925.41;6313615;28;20217;-76
2021/06/21 11:15:09;;;;;;;7.20;2.10;;;;;;;27.93;37.10;100922.63;6313333;28;20199;-75
2021/06/21 11:18:22;;;;;;;5.82;2.00;;;;;;;28.07;37.29;100928.06;6287500;28;20412;-75
2021/06/21 11:21:27;;;;;;;3.08;2.05;;;;;;;28.14;37.67;100928.41;6288775;28;20191;-76
2021/06/21 11:24:55;;;;;;;3.83;2.25;;;;;;;28.23;36.86;100926.41;6289002;28;20282;-77
2021/06/21 11:28:01;;;;;;;2.13;2.03;;;;;;;28.23;35.97;100920.78;6288590;28;20184;-76
2021/06/21 11:31:22;;;;;;;1.70;1.70;;;;;;;28.30;35.77;100937.94;6288536;28;20184;-77
2021/06/21 11:34:44;;;;;;;2.40;1.88;;;;;;;28.40;35.92;100937.56;6287248;28;20373;-76
2021/06/21 11:37:50;;;;;;;2.40;2.20;;;;;;;28.48;36.27;100924.69;6287663;28;20216;-76
2021/06/21 11:41:28;;;;;;;2.10;2.10;;;;;;;28.49;36.43;100929.97;6287124;28;20259;-75
2021/06/21 11:44:49;;;;;;;2.28;2.17;;;;;;;28.50;35.17;100926.00;6289234;28;20275;-75
2021/06/21 11:47:55;;;;;;;4.60;2.25;;;;;;;28.60;35.86;100935.22;6287763;28;20185;-76
2021/06/21 11:51:00;;;;;;;5.35;2.30;;;;;;;28.61;35.14;100920.03;6287057;28;20215;-76
2021/06/21 11:54:08;;;;;;;2.30;2.13;;;;;;;28.62;35.96;100924.50;6286883;28;20501;-75
2021/06/21 11:57:16;;;;;;;10.85;2.50;;;;;;;28.56;35.47;100935.88;6287872;28;20226;-78
2021/06/21 12:00:33;;;;;;;11.27;2.35;;;;;;;28.65;36.40;100926.66;6287950;28;20184;-76
2021/06/21 12:03:39;;;;;;;3.65;2.15;;;;;;;28.62;36.11;100930.94;6287473;28;20185;-76
2021/06/21 12:06:44;;;;;;;5.97;2.20;;;;;;;28.70;36.06;100932.91;6287656;28;20218;-76
2021/06/21 12:09:52;;;;;;;4.30;2.30;;;;;;;28.80;35.62;100923.28;6287452;28;20184;-76
2021/06/21 12:12:58;;;;;;;4.72;2.40;;;;;;;28.81;35.73;100936.19;6287342;28;20252;-76
2021/06/21 12:16:07;;;;;;;2.30;2.20;;;;;;;28.76;35.67;100927.94;6295641;28;20239;-76
2021/06/21 12:19:12;;;;;;;3.63;2.22;;;;;;;28.92;35.81;100937.44;6311953;28;20184;-76
2021/06/21 12:22:16;;;;;;;2.88;2.67;;;;;;;28.94;35.67;100935.13;6310947;28;20493;-76
2021/06/21 12:25:25;;;;;;;2.33;2.33;;;;;;;28.92;35.82;100926.19;6310876;28;20609;-76
2021/06/21 12:28:31;;;;;;;4.97;2.42;;;;;;;28.90;34.80;100939.75;6312213;28;20241;-75
2021/06/21 12:31:36;;;;;;;8.63;2.38;;;;;;;28.90;34.57;100931.34;6311136;28;20184;-74
2021/06/21 12:34:42;;;;;;;2.90;2.70;;;;;;;29.09;35.63;100920.50;6311878;28;20222;-74
2021/06/21 12:37:47;;;;;;;3.28;2.30;;;;;;;29.06;34.60;100935.22;6311283;28;20203;-74
2021/06/21 12:40:51;;;;;;;2.97;2.33;;;;;;;29.08;35.98;100930.09;6312305;28;20187;-78
2021/06/21 12:43:59;;;;;;;6.82;2.97;;;;;;;29.13;35.09;100927.09;6312172;28;20187;-75
2021/06/21 12:47:15;;;;;;;3.40;2.55;;;;;;;29.31;35.35;100927.84;6310561;28;20265;-75
2021/06/21 12:50:20;;;;;;;2.58;2.50;;;;;;;29.33;36.66;100931.94;6311952;28;20254;-75
2021/06/21 12:53:29;;;;;;;3.15;2.67;;;;;;;29.42;36.16;100941.16;6311941;28;20230;-74
2021/06/21 12:56:36;;;;;;;6.72;2.50;;;;;;;29.48;35.51;100928.53;6311961;28;20222;-75
2021/06/21 12:59:42;;;;;;;3.80;2.50;;;;;;;29.37;35.16;100935.75;6314594;28;20283;-74
2021/06/21 13:02:47;;;;;;;2.60;2.50;;;;;;;29.46;35.74;100922.44;6316867;28;20187;-75
2021/06/21 13:05:53;;;;;;;10.77;2.60;;;;;;;29.55;36.22;100934.47;6298076;28;20223;-75
2021/06/21 13:09:00;;;;;;;5.22;2.80;;;;;;;29.54;34.48;100937.59;6316534;28;20242;-75
2021/06/21 13:12:06;;;;;;;2.70;2.50;;;;;;;29.45;35.05;100929.25;6297954;28;20206;-75
2021/06/21 13:15:18;;;;;;;12.13;2.90;;;;;;;29.35;36.01;100935.25;6316302;28;20199;-75
2021/06/21 13:18:22;;;;;;;4.78;3.08;;;;;;;29.46;36.61;100936.50;6316559;28;20292;-76
2021/06/21 13:21:37;;;;;;;5.85;2.60;;;;;;;29.48;35.23;100944.59;6315530;28;20455;-75
2021/06/21 13:24:42;;;;;;;4.07;2.47;;;;;;;29.38;35.28;100957.03;6316243;28;20238;-77
2021/06/21 13:27:52;;;;;;;9.27;2.60;;;;;;;29.52;36.66;100952.00;6316665;28;20226;-76
2021/06/21 13:31:01;;;;;;;3.67;3.40;;;;;;;29.50;37.79;100943.09;6314948;28;20370;-74
2021/06/21 13:34:05;;;;;;;3.95;3.70;;;;;;;29.60;38.15;100947.50;6315939;28;20222;-75
2021/06/21 13:37:12;;;;;;;5.00;3.90;;;;;;;29.46;38.30;100946.91;6314948;28;20210;-74
2021/06/21 13:40:20;;;;;;;4.03;3.72;;;;;;;29.40;38.57;100949.13;6316256;28;20190;-75
2021/06/21 13:43:27;;;;;;;3.72;3.35;;;;;;;29.31;38.33;100950.31;6315592;28;20184;-75
2021/06/21 13:46:39;;;;;;;7.15;3.50;;;;;;;29.19;38.60;100959.44;6315239;28;20215;-75
2021/06/21 13:49:57;;;;;;;3.72;3.47;;;;;;;29.01;39.27;100964.34;6314562;28;20375;-76
2021/06/21 13:53:02;;;;;;;4.95;3.70;;;;;;;29.01;39.60;100969.97;6315497;28;20215;-76
2021/06/21 13:56:09;;;;;;;6.57;3.92;;;;;;;28.82;40.40;100977.13;6315399;28;20188;-75
2021/06/21 13:59:26;;;;;;;6.57;3.75;;;;;;;28.72;40.94;100988.72;6314256;28;20271;-74
2021/06/21 14:02:36;;;;;;;5.90;3.88;;;;;;;28.50;41.75;100987.72;6315291;28;20183;-75
2021/06/21 14:05:43;;;;;;;5.40;4.15;;;;;;;28.61;42.29;100987.41;6297133;28;20203;-75
2021/06/21 14:08:47;;;;;;;8.95;4.28;;;;;;;28.59;42.06;100990.53;6314678;28;20211;-75
2021/06/21 14:11:52;;;;;;;4.10;3.90;;;;;;;28.43;42.52;100993.03;6314583;28;20184;-76
2021/06/21 14:14:56;;;;;;;5.00;4.22;;;;;;;28.21;42.98;101007.25;6315041;28;20206;-76
2021/06/21 14:18:02;;;;;;;4.43;4.03;;;;;;;28.05;44.28;101000.50;6313847;28;20235;-75
2021/06/21 14:21:09;;;;;;;5.22;4.43;;;;;;;27.87;44.41;101001.59;6313843;28;20489;-76
2021/06/21 14:24:13;;;;;;;7.75;3.97;;;;;;;27.83;45.21;101011.84;6314580;28;20184;-75
2021/06/21 14:27:18;;;;;;;5.70;4.30;;;;;;;27.85;45.51;101009.53;6313831;28;20756;-75
2021/06/21 14:30:22;;;;;;;4.55;4.15;;;;;;;27.49;47.22;101007.00;6313596;28;20206;-75